Time;durP1;ratioP1;P1;durP2;ratioP2;P2;SDS_P1;SDS_P2;PMS_P1;PMS_P2;Temp;Humidity;BMP_temperature;BMP_pressure;BME280_temperature;BME280_humidity;BME280_pressure;Samples;Min_cycle;Max_cycle;Signal;HPM_P1;HPM_P2
2022/03/24 06:07:46;;;;;;;25.47;17.93;;;8.10;54.00;;;;;;5060405;28;20295;-68
2022/03/24 06:10:13;;;;;;;29.30;18.40;;;8.30;53.60;;;;;;5059389;28;20777;-68
2022/03/24 06:12:40;;;;;;;31.30;19.83;;;8.60;53.00;;;;;;5058027;28;20236;-68
2022/03/24 06:15:08;;;;;;;28.57;19.17;;;8.90;52.30;;;;;;5076670;28;20229;-68
2022/03/24 06:17:35;;;;;;;29.87;18.10;;;9.40;51.30;;;;;;5062127;28;20202;-68
2022/03/24 06:20:03;;;;;;;27.47;18.90;;;9.70;50.40;;;;;;5061820;28;20226;-68
2022/03/24 06:22:31;;;;;;;29.97;19.23;;;10.00;49.80;;;;;;5068347;28;20210;-68
2022/03/24 06:24:58;;;;;;;29.17;18.90;;;10.40;49.10;;;;;;5059625;28;20237;-68
2022/03/24 06:27:27;;;;;;;33.47;20.50;;;10.60;49.10;;;;;;5059976;28;20202;-68
2022/03/24 06:29:54;;;;;;;32.00;19.70;;;10.80;48.20;;;;;;5070788;28;20614;-68
2022/03/24 06:32:21;;;;;;;26.30;18.50;;;10.90;48.50;;;;;;5070771;28;20237;-68
2022/03/24 06:34:50;;;;;;;25.67;18.00;;;11.00;47.70;;;;;;5071413;28;20221;-69
2022/03/24 06:37:18;;;;;;;32.70;18.90;;;11.20;47.50;;;;;;5065655;28;20205;-68
2022/03/24 06:39:44;;;;;;;31.33;19.10;;;11.40;47.10;;;;;;5069789;28;20553;-68
2022/03/24 06:42:12;;;;;;;27.17;18.40;;;11.50;46.70;;;;;;5070631;28;20208;-68
2022/03/24 06:44:39;;;;;;;27.37;19.30;;;11.60;46.50;;;;;;5061120;28;20257;-68
2022/03/24 06:47:07;;;;;;;32.00;18.70;;;11.70;46.40;;;;;;5053802;28;20568;-68
2022/03/24 06:49:34;;;;;;;29.13;18.63;;;11.70;46.80;;;;;;5061706;28;20208;-68
2022/03/24 06:52:01;;;;;;;31.60;20.90;;;11.60;47.10;;;;;;5061782;28;20603;-68
2022/03/24 06:54:29;;;;;;;29.87;18.90;;;11.60;47.20;;;;;;5063661;28;20204;-68
2022/03/24 06:56:56;;;;;;;30.30;19.50;;;11.50;47.50;;;;;;5066563;28;20220;-68
2022/03/24 06:59:23;;;;;;;35.57;19.07;;;11.40;48.00;;;;;;5069127;28;20216;-68
2022/03/24 07:01:51;;;;;;;28.80;17.80;;;11.30;48.10;;;;;;5062885;28;20221;-68
2022/03/24 07:04:18;;;;;;;29.57;18.23;;;11.20;48.20;;;;;;5063114;28;20195;-68
2022/03/24 07:06:45;;;;;;;29.67;19.33;;;11.20;48.40;;;;;;5065263;28;20237;-68
2022/03/24 07:09:12;;;;;;;26.30;18.50;;;11.10;48.60;;;;;;5065300;28;20207;-68
2022/03/24 07:11:39;;;;;;;28.40;18.87;;;11.10;48.70;;;;;;5065234;28;20210;-68
2022/03/24 07:14:06;;;;;;;29.87;18.60;;;11.20;48.70;;;;;;5068548;28;20198;-68
2022/03/24 07:16:33;;;;;;;29.97;18.00;;;11.20;48.70;;;;;;5045576;28;20218;-68
2022/03/24 07:19:00;;;;;;;30.83;18.93;;;11.30;48.80;;;;;;5063941;28;20692;-68
2022/03/24 07:21:27;;;;;;;32.77;18.50;;;11.40;48.70;;;;;;5060431;28;20688;-68
2022/03/24 07:23:54;;;;;;;27.70;17.87;;;11.50;48.70;;;;;;5062036;28;20210;-68
2022/03/24 07:26:21;;;;;;;27.30;18.73;;;11.60;48.20;;;;;;5063383;28;20216;-68
2022/03/24 07:28:48;;;;;;;34.10;17.83;;;11.70;48.10;;;;;;5055839;28;20257;-68
2022/03/24 07:31:19;;;;;;;30.40;18.63;;;11.80;47.90;;;;;;5075187;28;20221;-68
2022/03/24 07:33:47;;;;;;;33.47;19.07;;;11.90;48.10;;;;;;5074435;28;20265;-68
2022/03/24 07:36:16;;;;;;;27.63;18.53;;;12.00;48.20;;;;;;5069215;28;20201;-68
2022/03/24 07:38:44;;;;;;;32.47;17.50;;;12.20;48.20;;;;;;5069066;28;20216;-68
2022/03/24 07:41:11;;;;;;;29.63;17.40;;;12.40;47.90;;;;;;5073448;28;20208;-68
2022/03/24 07:43:38;;;;;;;27.33;17.17;;;12.50;47.20;;;;;;5065466;28;20203;-68
2022/03/24 07:46:05;;;;;;;28.00;18.17;;;12.70;46.80;;;;;;5055469;28;20212;-68
2022/03/24 07:48:32;;;;;;;29.47;19.10;;;12.90;46.80;;;;;;5074468;28;20229;-68
2022/03/24 07:51:00;;;;;;;27.83;18.80;;;13.00;46.40;;;;;;5072744;28;20642;-68
2022/03/24 07:53:39;;;;;;;28.50;18.57;;;13.20;46.40;;;;;;5071643;28;20214;-68
2022/03/24 07:56:07;;;;;;;24.43;17.20;;;13.40;46.30;;;;;;5060910;28;20209;-68
2022/03/24 07:58:36;;;;;;;22.43;18.07;;;13.60;45.70;;;;;;5072939;28;20676;-69
2022/03/24 08:01:03;;;;;;;23.93;17.53;;;13.70;45.30;;;;;;5066658;28;20208;-68
2022/03/24 08:03:30;;;;;;;27.00;18.80;;;13.90;45.00;;;;;;5073546;28;20213;-68
2022/03/24 14:12:10;;;;;;;12.27;10.70;;;23.00;24.90;;;;;;5053917;28;20258;-71
2022/03/24 14:14:43;;;;;;;13.07;10.47;;;23.00;24.60;;;;;;5081937;28;20212;-71
2022/03/24 14:17:14;;;;;;;12.73;11.43;;;23.00;25.10;;;;;;5076625;28;20208;-71
2022/03/24 14:19:57;;;;;;;12.10;10.23;;;23.00;25.40;;;;;;5061333;28;20202;-71
2022/03/24 14:22:26;;;;;;;13.87;10.13;;;23.10;25.10;;;;;;5044428;28;20217;-71
2022/03/24 14:24:53;;;;;;;11.77;9.30;;;23.10;25.00;;;;;;5073079;28;20518;-71
2022/03/24 14:27:25;;;;;;;10.63;9.33;;;23.20;25.00;;;;;;5064911;28;20566;-71
2022/03/24 14:30:07;;;;;;;11.23;9.70;;;23.20;23.80;;;;;;5074049;28;20215;-71
2022/03/24 14:49:25;;;;;;;15.23;11.23;;;22.90;25.20;;;;;;5065082;28;20235;-71
2022/03/24 14:51:52;;;;;;;11.33;9.90;;;22.90;25.80;;;;;;5065775;28;20289;-71
2022/03/24 14:54:19;;;;;;;12.03;9.87;;;22.80;25.80;;;;;;5061558;28;20280;-71
2022/03/24 14:56:46;;;;;;;14.60;10.77;;;22.70;26.30;;;;;;5069299;28;20208;-71
2022/03/24 14:59:14;;;;;;;10.90;9.80;;;22.60;25.80;;;;;;5059344;28;20205;-71
2022/03/24 15:01:42;;;;;;;12.73;10.00;;;22.60;26.70;;;;;;5066867;28;20214;-71
2022/03/24 15:04:09;;;;;;;10.77;9.63;;;22.50;25.80;;;;;;5059560;28;20281;-71
2022/03/24 15:06:36;;;;;;;14.13;10.50;;;22.50;26.30;;;;;;5062918;28;20596;-71
2022/03/24 15:09:04;;;;;;;11.27;8.87;;;22.50;26.50;;;;;;5071176;28;20210;-71
2022/03/24 15:11:31;;;;;;;11.03;9.43;;;22.50;25.80;;;;;;5065542;28;20238;-71
2022/03/24 15:16:43;;;;;;;12.03;8.93;;;22.40;26.50;;;;;;5060827;28;20227;-71
2022/03/24 15:19:11;;;;;;;11.27;10.07;;;22.40;26.30;;;;;;5065976;28;20566;-71
2022/03/24 15:21:38;;;;;;;12.70;9.73;;;22.30;26.40;;;;;;5071508;28;20213;-71
2022/03/24 15:24:05;;;;;;;10.27;8.63;;;22.30;26.10;;;;;;5061788;28;20208;-71
2022/03/24 15:26:32;;;;;;;29.13;10.27;;;22.30;26.20;;;;;;5068857;28;20202;-72
2022/03/24 15:29:01;;;;;;;11.53;9.37;;;22.20;26.40;;;;;;5074844;28;20245;-72
2022/03/24 15:31:28;;;;;;;15.07;10.67;;;22.20;27.30;;;;;;5065991;28;20213;-72
2022/03/24 15:33:56;;;;;;;10.30;8.30;;;22.10;27.20;;;;;;5061838;28;20312;-72
2022/03/24 15:36:23;;;;;;;11.40;10.20;;;22.00;27.40;;;;;;5062004;28;20210;-72
2022/03/24 15:38:51;;;;;;;11.93;10.50;;;22.00;27.40;;;;;;5072916;28;20202;-72
2022/03/24 15:41:19;;;;;;;10.17;9.13;;;21.90;27.30;;;;;;5071492;28;20205;-72
2022/03/24 15:43:46;;;;;;;10.70;9.60;;;21.90;27.40;;;;;;5064227;28;20206;-72
2022/03/24 16:10:40;;;;;;;10.57;8.93;;;21.10;27.10;;;;;;5060453;28;20248;-72
2022/03/24 16:13:07;;;;;;;11.53;9.23;;;21.00;27.60;;;;;;5064497;28;20557;-72
2022/03/24 16:15:35;;;;;;;9.00;7.93;;;20.90;28.00;;;;;;5072734;28;20221;-72
2022/03/24 16:18:03;;;;;;;9.67;8.03;;;20.90;28.40;;;;;;5069041;28;20200;-72
2022/03/24 16:20:30;;;;;;;10.77;8.20;;;20.80;28.90;;;;;;5064146;28;20261;-72
2022/03/24 16:23:00;;;;;;;11.53;8.33;;;20.80;28.30;;;;;;5072574;28;20218;-72
2022/03/24 16:25:28;;;;;;;9.00;7.80;;;20.70;28.40;;;;;;5063262;28;20205;-72
2022/03/24 16:27:56;;;;;;;8.73;7.80;;;20.60;28.60;;;;;;5074051;28;20640;-72
2022/03/24 16:30:23;;;;;;;19.03;8.60;;;20.60;28.30;;;;;;5065121;28;20220;-72
2022/03/24 16:32:52;;;;;;;13.17;7.87;;;20.60;27.80;;;;;;5072405;28;20212;-72
2022/03/24 16:35:20;;;;;;;9.10;7.37;;;20.50;27.60;;;;;;5070671;28;20544;-72
2022/03/24 16:37:48;;;;;;;9.17;7.43;;;20.50;27.50;;;;;;5062360;28;20206;-72
2022/03/24 16:40:15;;;;;;;10.67;7.77;;;20.50;27.60;;;;;;5057707;28;20545;-72
2022/03/24 16:42:43;;;;;;;8.97;6.53;;;20.40;27.80;;;;;;5063250;28;20536;-73
2022/03/24 16:45:13;;;;;;;8.90;6.07;;;20.40;27.70;;;;;;5073493;28;20289;-73
2022/03/24 16:47:41;;;;;;;8.63;6.03;;;20.30;27.70;;;;;;5068883;28;20214;-72
2022/03/24 16:50:24;;;;;;;9.10;7.50;;;20.30;27.80;;;;;;5062488;28;20202;-72
2022/03/24 16:52:53;;;;;;;7.47;6.67;;;20.20;27.90;;;;;;5070214;28;20244;-70
2022/03/24 16:55:21;;;;;;;8.73;6.97;;;20.20;28.00;;;;;;5066292;28;20284;-70
2022/03/24 16:57:58;;;;;;;6.70;6.00;;;20.10;28.10;;;;;;5072372;28;20208;-70
2022/03/24 17:00:25;;;;;;;10.37;6.93;;;20.00;28.30;;;;;;5064659;28;20626;-70
2022/03/24 17:02:52;;;;;;;8.53;7.50;;;19.90;28.40;;;;;;5056566;28;20610;-71
2022/03/24 17:05:19;;;;;;;10.33;6.87;;;19.90;28.60;;;;;;5072382;28;20201;-71
2022/03/24 17:07:46;;;;;;;14.17;7.47;;;19.80;28.70;;;;;;5061008;28;20196;-71
2022/03/24 17:10:14;;;;;;;12.30;8.17;;;19.70;28.70;;;;;;5059786;28;20202;-71
2022/03/24 17:12:42;;;;;;;11.10;7.90;;;19.60;29.00;;;;;;5060722;28;20244;-71
2022/03/24 17:15:14;;;;;;;9.47;8.10;;;19.50;29.20;;;;;;5058803;28;20204;-71
2022/03/24 17:17:42;;;;;;;8.90;6.70;;;19.40;29.30;;;;;;5065723;28;20796;-71
2022/03/24 17:20:09;;;;;;;10.70;6.90;;;19.40;29.50;;;;;;5069689;28;20206;-71
2022/03/24 17:22:38;;;;;;;11.27;7.60;;;19.20;29.70;;;;;;5059235;28;20209;-71
2022/03/24 17:25:05;;;;;;;11.30;7.30;;;19.10;30.00;;;;;;5061430;28;20205;-71
2022/03/24 17:27:33;;;;;;;8.73;7.03;;;19.00;30.20;;;;;;5071536;28;20320;-71
2022/03/24 17:30:00;;;;;;;9.07;7.03;;;18.90;30.50;;;;;;5065558;28;20209;-71
2022/03/24 17:32:33;;;;;;;13.57;8.27;;;18.80;30.70;;;;;;5054149;28;20238;-71
2022/03/24 17:35:00;;;;;;;12.30;7.13;;;18.70;30.80;;;;;;5060276;28;20220;-71
2022/03/24 17:37:27;;;;;;;13.90;7.73;;;18.60;30.90;;;;;;5069374;28;20249;-71
2022/03/24 17:39:54;;;;;;;12.13;8.13;;;18.50;31.20;;;;;;5070685;28;20266;-71
2022/03/24 17:42:21;;;;;;;13.93;7.93;;;18.30;31.30;;;;;;5063487;28;20503;-72
2022/03/24 17:44:48;;;;;;;11.20;7.33;;;18.30;31.90;;;;;;5070910;28;20199;-71
2022/03/24 17:47:15;;;;;;;14.20;7.80;;;18.10;31.40;;;;;;5061755;28;20213;-70
2022/03/24 17:49:42;;;;;;;11.13;7.73;;;18.00;31.60;;;;;;5066311;28;20282;-70
2022/03/24 17:52:10;;;;;;;17.00;8.73;;;17.90;32.00;;;;;;5065664;28;20212;-70
2022/03/24 17:54:37;;;;;;;13.93;7.47;;;17.80;32.20;;;;;;5066137;28;20219;-70
2022/03/24 17:57:08;;;;;;;10.20;8.87;;;17.70;32.40;;;;;;5071778;28;20202;-70
2022/03/24 17:59:37;;;;;;;9.07;7.77;;;17.60;32.40;;;;;;5063867;28;20288;-70
2022/03/24 18:02:04;;;;;;;16.17;11.77;;;17.50;32.40;;;;;;5067771;28;20224;-70
2022/03/24 18:04:32;;;;;;;17.37;12.17;;;17.50;32.30;;;;;;5059884;28;20194;-70
2022/03/24 18:06:59;;;;;;;17.47;10.57;;;17.40;32.30;;;;;;5068591;28;20206;-71
